createdAt,value
2022-08-07T00:02:35.019Z,101735.56
2022-08-07T00:04:04.367Z,101726.41
2022-08-07T00:06:33.490Z,101733.16
2022-08-07T00:09:16.885Z,101724.91
2022-08-07T00:11:55.660Z,101732.00
2022-08-07T00:14:30.207Z,101730.34
2022-08-07T00:16:58.995Z,101729.59
2022-08-07T00:19:25.885Z,101727.69
2022-08-07T00:21:57.334Z,101723.94
2022-08-07T00:24:29.261Z,101729.97
2022-08-07T00:27:06.178Z,101730.03
2022-08-07T00:29:36.921Z,101737.94
2022-08-07T00:32:05.994Z,101730.75
2022-08-07T00:34:35.435Z,101736.69
2022-08-07T00:37:02.444Z,101731.78
2022-08-07T00:39:31.941Z,101735.72
2022-08-07T00:42:02.199Z,101737.09
2022-08-07T00:44:33.360Z,101728.03
2022-08-07T00:47:01.158Z,101721.69
2022-08-07T00:50:19.311Z,101725.31
2022-08-07T00:52:19.798Z,101723.22
2022-08-07T00:54:46.972Z,101727.03
2022-08-07T00:57:25.272Z,101727.66
2022-08-07T00:59:53.167Z,101720.31
2022-08-07T01:02:28.326Z,101723.22
2022-08-07T01:04:58.313Z,101726.69
2022-08-07T01:07:27.554Z,101726.69
2022-08-07T01:10:07.126Z,101732.19
2022-08-07T01:12:39.105Z,101725.94
2022-08-07T01:15:06.701Z,101733.56
2022-08-07T01:17:39.977Z,101731.66
2022-08-07T01:20:17.145Z,101733.69
2022-08-07T01:22:54.354Z,101728.34
2022-08-07T01:25:53.669Z,101728.22
2022-08-07T01:28:18.589Z,101728.81
2022-08-07T01:30:45.317Z,101731.34
2022-08-07T01:33:13.635Z,101733.50
2022-08-07T01:35:53.234Z,101734.91
2022-08-07T01:38:25.168Z,101730.63
2022-08-07T01:40:54.898Z,101730.44
2022-08-07T01:43:22.289Z,101731.72
2022-08-07T01:45:54.597Z,101727.09
2022-08-07T01:48:30.282Z,101738.19
2022-08-07T01:51:24.474Z,101734.56
2022-08-07T01:54:12.660Z,101735.41
2022-08-07T01:57:03.791Z,101736.94
2022-08-07T01:59:36.804Z,101737.63
2022-08-07T02:03:11.271Z,101739.34
2022-08-07T02:05:06.494Z,101739.47
2022-08-07T02:07:50.165Z,101740.00
2022-08-07T02:10:19.502Z,101738.72
2022-08-07T02:12:50.039Z,101743.41
2022-08-07T02:15:21.592Z,101743.66
2022-08-07T02:17:51.825Z,101742.00
2022-08-07T02:20:23.688Z,101745.50
2022-08-07T02:22:55.119Z,101746.84
2022-08-07T02:26:10.261Z,101740.38
2022-08-07T02:28:11.298Z,101746.84
2022-08-07T02:30:38.892Z,101747.59
2022-08-07T02:33:09.511Z,101749.28
2022-08-07T02:36:29.286Z,101742.25
2022-08-07T02:38:31.847Z,101747.28
2022-08-07T02:40:59.777Z,101744.88
2022-08-07T02:43:28.310Z,101744.69
2022-08-07T02:46:02.026Z,101753.91
2022-08-07T02:48:30.296Z,101751.34
2022-08-07T02:50:59.334Z,101752.38
2022-08-07T02:53:30.064Z,101752.34
2022-08-07T02:56:04.416Z,101738.59
2022-08-07T02:58:34.146Z,101747.88
2022-08-07T03:01:02.193Z,101745.78
2022-08-07T03:03:50.083Z,101751.84
2022-08-07T03:06:26.240Z,101747.09
2022-08-07T03:09:02.128Z,101745.47
2022-08-07T03:11:29.612Z,101750.38
2022-08-07T03:14:01.783Z,101747.00
2022-08-07T03:16:30.433Z,101745.34
2022-08-07T03:18:58.293Z,101744.31
2022-08-07T03:21:25.362Z,101745.06
2022-08-07T03:24:19.469Z,101742.16
2022-08-07T03:26:50.981Z,101745.63
2022-08-07T03:29:20.808Z,101748.13
2022-08-07T03:31:50.022Z,101741.75
2022-08-07T03:34:18.548Z,101745.94
2022-08-07T03:36:51.091Z,101752.63
2022-08-07T03:39:18.090Z,101748.44
2022-08-07T03:42:13.315Z,101764.56
2022-08-07T03:44:40.207Z,101753.09
2022-08-07T03:47:10.824Z,101763.31
2022-08-07T03:49:42.253Z,101757.78
2022-08-07T03:52:22.403Z,101763.34
2022-08-07T03:54:58.973Z,101770.91
2022-08-07T03:58:32.572Z,101760.06
2022-08-07T04:00:21.094Z,101770.84
2022-08-07T04:02:56.865Z,101763.66
2022-08-07T04:05:28.736Z,101761.78
2022-08-07T04:08:06.733Z,101768.56
2022-08-07T04:10:33.435Z,101770.78
2022-08-07T04:13:07.620Z,101769.53
2022-08-07T04:15:43.459Z,101772.44
2022-08-07T04:18:57.946Z,101776.50
2022-08-07T04:21:02.628Z,101774.44
2022-08-07T04:23:43.667Z,101774.81
2022-08-07T04:26:16.948Z,101782.97
2022-08-07T04:28:48.552Z,101779.13
2022-08-07T04:31:20.196Z,101785.66
2022-08-07T04:34:03.167Z,101780.38
2022-08-07T04:36:29.727Z,101785.50
2022-08-07T04:38:56.271Z,101777.13
2022-08-07T04:41:24.914Z,101777.22
2022-08-07T04:44:11.994Z,101775.25
2022-08-07T04:46:59.629Z,101777.44
2022-08-07T04:50:06.482Z,101777.81
2022-08-07T04:52:51.905Z,101778.03
2022-08-07T04:58:09.702Z,101787.53
2022-08-07T05:00:07.856Z,101785.16
2022-08-07T05:02:01.682Z,101793.50
2022-08-07T05:04:47.070Z,101791.59
2022-08-07T05:07:30.663Z,101802.91
2022-08-07T05:10:49.662Z,101791.28
2022-08-07T05:14:51.993Z,101790.28
2022-08-07T05:16:24.288Z,101796.91
2022-08-07T05:18:57.237Z,101796.81
2022-08-07T05:22:00.444Z,101804.88
2022-08-07T05:24:17.227Z,101799.56
2022-08-07T05:26:47.192Z,101801.56
2022-08-07T05:29:15.897Z,101807.97
2022-08-07T05:31:47.576Z,101807.88
2022-08-07T05:34:19.953Z,101809.97
2022-08-07T05:36:54.025Z,101811.41
2022-08-07T05:40:05.382Z,101822.09
2022-08-07T05:42:11.939Z,101818.91
2022-08-07T05:44:46.440Z,101820.94
2022-08-07T05:47:18.592Z,101814.81
2022-08-07T05:49:52.362Z,101818.31
2022-08-07T05:52:20.053Z,101824.66
2022-08-07T05:54:55.640Z,101830.28
2022-08-07T05:57:26.575Z,101824.72
2022-08-07T06:00:00.307Z,101823.81
2022-08-07T06:02:31.488Z,101826.31
2022-08-07T06:05:03.814Z,101825.09
2022-08-07T06:08:13.405Z,101829.38
2022-08-07T06:10:18.794Z,101833.22
2022-08-07T06:12:47.229Z,101833.09
2022-08-07T06:15:16.111Z,101837.81
2022-08-07T06:17:53.583Z,101828.38
2022-08-07T06:20:25.605Z,101839.38
2022-08-07T06:23:25.055Z,101848.34
2022-08-07T06:25:54.345Z,101843.97
2022-08-07T06:28:27.739Z,101846.75
2022-08-07T06:30:55.623Z,101849.59
2022-08-07T06:33:22.931Z,101848.59
2022-08-07T06:36:12.378Z,101848.94
2022-08-07T06:38:36.448Z,101852.78
2022-08-07T06:41:18.262Z,101851.75
2022-08-07T06:44:10.877Z,101855.03
2022-08-07T06:46:38.303Z,101854.25
2022-08-07T06:49:07.200Z,101862.28
2022-08-07T06:51:49.572Z,101859.50
2022-08-07T06:55:34.450Z,101856.66
2022-08-07T06:57:07.409Z,101854.25
2022-08-07T07:00:15.098Z,101857.59
2022-08-07T07:02:48.818Z,101861.88
2022-08-07T07:05:12.598Z,101854.53
2022-08-07T07:07:59.550Z,101851.72
2022-08-07T07:10:31.156Z,101855.13
2022-08-07T07:13:04.609Z,101860.63
2022-08-07T07:15:37.633Z,101850.22
2022-08-07T07:18:09.367Z,101855.56
2022-08-07T07:20:38.493Z,101850.97
2022-08-07T07:24:08.909Z,101851.81
2022-08-07T07:26:32.444Z,101857.03
2022-08-07T07:29:56.341Z,101844.69
2022-08-07T07:31:56.111Z,101853.72
2022-08-07T07:34:30.996Z,101848.38
2022-08-07T07:37:14.951Z,101848.44
2022-08-07T07:39:54.252Z,101838.56
2022-08-07T07:42:25.785Z,101847.13
2022-08-07T07:45:02.047Z,101841.91
2022-08-07T07:47:29.569Z,101836.88
2022-08-07T07:50:36.178Z,101836.63
2022-08-07T07:52:46.957Z,101825.94
2022-08-07T07:55:14.608Z,101828.66
2022-08-07T07:57:51.560Z,101828.66
2022-08-07T08:00:29.087Z,101834.06
2022-08-07T08:03:17.013Z,101843.59
2022-08-07T08:05:56.835Z,101838.59
2022-08-07T08:08:34.446Z,101839.03
2022-08-07T08:11:03.784Z,101841.72
2022-08-07T08:13:36.772Z,101842.88
2022-08-07T08:16:20.204Z,101832.53
2022-08-07T08:18:54.623Z,101837.13
2022-08-07T08:21:55.914Z,101838.59
2022-08-07T08:24:57.382Z,101815.22
2022-08-07T08:27:37.110Z,101829.75
2022-08-07T08:30:14.215Z,101839.75
2022-08-07T08:32:49.012Z,101836.28
2022-08-07T08:35:20.499Z,101826.41
2022-08-07T08:38:01.161Z,101837.50
2022-08-07T08:40:37.854Z,101842.13
2022-08-07T08:43:42.031Z,101844.03
2022-08-07T08:46:28.386Z,101833.28
2022-08-07T08:49:10.199Z,101829.47
2022-08-07T08:54:36.836Z,101834.81
2022-08-07T08:57:08.779Z,101844.31
2022-08-07T08:59:51.301Z,101832.41
2022-08-07T09:02:39.170Z,101839.59
2022-08-07T09:05:10.049Z,101839.75
2022-08-07T09:07:46.481Z,101832.91
2022-08-07T09:10:45.185Z,101835.44
2022-08-07T09:13:38.265Z,101852.47
2022-08-07T09:16:30.038Z,101836.03
2022-08-07T09:19:51.866Z,101840.84
2022-08-07T09:24:27.987Z,101845.94
2022-08-07T09:25:20.304Z,101847.88
2022-08-07T09:28:00.585Z,101852.41
2022-08-07T09:30:54.727Z,101850.78
2022-08-07T09:33:52.376Z,101848.84
2022-08-07T09:36:35.646Z,101835.88
2022-08-07T09:39:55.455Z,101844.34
2022-08-07T09:42:50.267Z,101839.00
2022-08-07T09:47:50.136Z,101834.81
2022-08-07T09:48:56.097Z,101833.09
2022-08-07T09:52:09.661Z,101824.09
2022-08-07T09:54:59.595Z,101824.41
2022-08-07T09:57:46.548Z,101823.16
2022-08-07T10:00:16.601Z,101824.56
2022-08-07T10:04:05.253Z,101822.19
2022-08-07T10:06:24.444Z,101822.13
2022-08-07T10:09:08.664Z,101817.91
2022-08-07T10:12:01.555Z,101822.84
2022-08-07T10:14:47.527Z,101815.66
2022-08-07T10:18:01.027Z,101813.28
2022-08-07T10:20:50.335Z,101806.88
2022-08-07T10:24:05.347Z,101805.94
2022-08-07T10:26:38.543Z,101804.34
2022-08-07T10:29:45.654Z,101808.13
2022-08-07T10:32:53.517Z,101807.19
2022-08-07T10:35:55.638Z,101812.78
2022-08-07T10:38:36.044Z,101807.81
2022-08-07T10:41:46.396Z,101809.00
2022-08-07T10:44:16.575Z,101801.44
2022-08-07T10:47:02.060Z,101796.47
2022-08-07T10:49:49.635Z,101802.63
2022-08-07T10:52:40.203Z,101801.47
2022-08-07T10:55:26.771Z,101804.53
2022-08-07T10:59:06.641Z,101795.31
2022-08-07T11:02:05.422Z,101792.22
2022-08-07T11:04:57.866Z,101804.88
2022-08-07T11:07:58.853Z,101796.81
2022-08-07T11:10:39.336Z,101785.72
2022-08-07T11:14:45.968Z,101793.78
2022-08-07T11:16:21.977Z,101785.72
2022-08-07T11:19:11.968Z,101786.09
2022-08-07T11:22:00.883Z,101786.47
2022-08-07T11:24:56.102Z,101774.59
2022-08-07T11:28:01.376Z,101776.50
2022-08-07T11:30:41.357Z,101779.19
2022-08-07T11:33:58.593Z,101777.66
2022-08-07T11:36:44.202Z,101787.56
2022-08-07T11:39:19.933Z,101787.56
2022-08-07T11:42:23.428Z,101781.97
2022-08-07T11:45:09.202Z,101784.16
2022-08-07T11:47:58.995Z,101785.72
2022-08-07T11:50:32.226Z,101779.97
2022-08-07T11:53:35.257Z,101782.69
2022-08-07T11:56:25.274Z,101780.44
2022-08-07T12:00:08.330Z,101774.66
2022-08-07T12:02:30.336Z,101772.59
2022-08-07T12:05:15.398Z,101777.53
2022-08-07T12:08:04.007Z,101779.88
2022-08-07T12:10:41.992Z,101775.66
2022-08-07T12:13:18.644Z,101777.78
2022-08-07T12:16:09.300Z,101774.03
2022-08-07T12:18:53.331Z,101778.59
2022-08-07T12:21:56.030Z,101773.75
2022-08-07T12:25:17.995Z,101765.72
2022-08-07T12:28:04.041Z,101765.78
2022-08-07T12:30:39.069Z,101755.44
2022-08-07T12:33:28.427Z,101765.03
2022-08-07T12:36:15.747Z,101761.94
2022-08-07T12:38:47.495Z,101761.41
2022-08-07T12:41:42.812Z,101759.06
2022-08-07T12:44:17.374Z,101760.50
2022-08-07T12:46:53.358Z,101768.22
2022-08-07T12:49:48.511Z,101774.97
2022-08-07T12:52:28.956Z,101762.03
2022-08-07T12:56:03.558Z,101755.59
2022-08-07T12:58:39.449Z,101756.75
2022-08-07T13:01:08.003Z,101767.25
2022-08-07T13:04:18.879Z,101760.41
2022-08-07T13:08:12.931Z,101754.66
2022-08-07T13:11:21.902Z,101754.97
2022-08-07T13:14:03.224Z,101752.97
2022-08-07T13:16:36.719Z,101749.03
2022-08-07T13:19:50.764Z,101754.69
2022-08-07T13:22:32.649Z,101748.28
2022-08-07T13:25:23.993Z,101751.69
2022-08-07T13:28:12.775Z,101754.66
2022-08-07T13:30:48.863Z,101758.88
2022-08-07T13:34:30.796Z,101755.75
2022-08-07T13:36:27.628Z,101754.06
2022-08-07T13:39:11.299Z,101755.53
2022-08-07T13:41:47.449Z,101758.94
2022-08-07T13:44:18.654Z,101749.34
2022-08-07T13:46:56.787Z,101756.50
2022-08-07T13:50:35.277Z,101753.41
2022-08-07T13:52:26.437Z,101758.72
2022-08-07T13:54:59.058Z,101742.97
2022-08-07T13:57:37.609Z,101758.63
2022-08-07T14:00:13.401Z,101753.09
2022-08-07T14:02:55.873Z,101751.03
2022-08-07T14:05:37.414Z,101758.75
2022-08-07T14:08:07.235Z,101755.41
2022-08-07T14:10:42.008Z,101751.97
2022-08-07T14:13:16.251Z,101755.41
2022-08-07T14:15:44.388Z,101748.53
2022-08-07T14:18:29.827Z,101747.41
2022-08-07T14:22:41.178Z,101743.53
2022-08-07T14:24:03.771Z,101749.66
2022-08-07T14:26:36.615Z,101753.03
2022-08-07T14:30:04.819Z,101749.16
2022-08-07T14:31:56.471Z,101744.63
2022-08-07T14:34:29.594Z,101745.44
2022-08-07T14:36:56.703Z,101737.78
2022-08-07T14:40:17.751Z,101736.63
2022-08-07T14:42:18.669Z,101742.38
2022-08-07T14:44:53.613Z,101739.66
2022-08-07T14:47:23.215Z,101732.75
2022-08-07T14:49:57.099Z,101738.13
2022-08-07T14:52:28.711Z,101738.81
2022-08-07T14:54:58.548Z,101738.13
2022-08-07T14:57:54.858Z,101741.19
2022-08-07T15:00:20.605Z,101738.34
2022-08-07T15:02:58.038Z,101739.16
2022-08-07T15:05:26.915Z,101746.47
2022-08-07T15:07:58.356Z,101740.75
2022-08-07T15:10:29.642Z,101742.25
2022-08-07T15:13:12.316Z,101746.03
2022-08-07T15:15:43.027Z,101738.78
2022-08-07T15:21:58.960Z,101733.78
2022-08-07T15:25:16.042Z,101743.00
2022-08-07T15:27:04.311Z,101731.91
2022-08-07T15:30:09.799Z,101727.22
2022-08-07T15:33:01.255Z,101726.84
2022-08-07T15:38:51.268Z,101721.81
2022-08-07T15:41:24.074Z,101721.47
2022-08-07T15:44:07.796Z,101725.19
2022-08-07T15:46:48.588Z,101723.75
2022-08-07T15:52:10.720Z,101715.72
2022-08-07T15:54:42.152Z,101721.53
2022-08-07T15:57:27.893Z,101722.19
2022-08-07T15:59:59.514Z,101720.50
2022-08-07T16:02:38.986Z,101718.13
2022-08-07T16:05:15.288Z,101715.63
2022-08-07T16:08:33.521Z,101721.63
2022-08-07T16:11:03.720Z,101725.41
2022-08-07T16:13:57.757Z,101721.66
2022-08-07T16:16:49.425Z,101737.41
2022-08-07T16:19:58.792Z,101738.44
2022-08-07T16:22:54.294Z,101725.66
2022-08-07T16:25:54.513Z,101725.22
2022-08-07T16:30:05.492Z,101724.97
2022-08-07T16:31:51.784Z,101728.47
2022-08-07T16:34:48.579Z,101730.81
2022-08-07T16:38:05.922Z,101723.72
2022-08-07T16:40:32.070Z,101722.69
2022-08-07T16:43:07.900Z,101713.09
2022-08-07T16:46:47.284Z,101712.81
2022-08-07T16:50:20.741Z,101718.88
2022-08-07T16:52:52.681Z,101723.00
2022-08-07T16:55:47.949Z,101709.47
2022-08-07T16:59:10.244Z,101710.44
2022-08-07T17:01:35.951Z,101711.09
2022-08-07T17:04:12.289Z,101713.56
2022-08-07T17:07:02.993Z,101712.03
2022-08-07T17:10:06.850Z,101715.28
2022-08-07T17:12:53.848Z,101715.81
2022-08-07T17:15:44.422Z,101713.72
2022-08-07T17:18:25.951Z,101718.34
2022-08-07T17:20:53.892Z,101717.97
2022-08-07T17:23:32.645Z,101717.22
2022-08-07T17:26:30.579Z,101723.72
2022-08-07T17:30:15.609Z,101727.63
2022-08-07T17:33:04.709Z,101720.53
2022-08-07T17:36:20.592Z,101725.28
2022-08-07T17:39:10.073Z,101722.72
2022-08-07T17:42:04.863Z,101721.09
2022-08-07T17:44:50.571Z,101726.75
2022-08-07T17:47:54.137Z,101724.34
2022-08-07T17:50:30.469Z,101721.16
2022-08-07T17:53:01.080Z,101714.75
2022-08-07T17:56:00.680Z,101721.00
2022-08-07T17:58:53.091Z,101722.00
2022-08-07T18:01:36.235Z,101727.88
2022-08-07T18:04:24.696Z,101727.59
2022-08-07T18:07:20.262Z,101721.47
2022-08-07T18:10:06.648Z,101717.94
2022-08-07T18:13:10.968Z,101730.22
2022-08-07T18:16:05.135Z,101730.13
2022-08-07T18:21:02.816Z,101730.66
2022-08-07T18:21:53.547Z,101735.81
2022-08-07T18:24:51.653Z,101737.41
2022-08-07T18:27:39.111Z,101727.69
2022-08-07T18:30:31.253Z,101736.44
2022-08-07T18:33:15.908Z,101741.38
2022-08-07T18:36:32.973Z,101734.81
2022-08-07T18:40:07.210Z,101742.28
2022-08-07T18:42:28.577Z,101740.66
2022-08-07T18:45:44.620Z,101751.00
2022-08-07T18:48:38.206Z,101756.84
2022-08-07T18:52:35.204Z,101753.28
2022-08-07T18:54:30.597Z,101755.22
2022-08-07T18:57:31.031Z,101756.16
2022-08-07T19:00:32.440Z,101760.22
2022-08-07T19:03:37.797Z,101750.84
2022-08-07T19:06:16.456Z,101756.81
2022-08-07T19:09:09.354Z,101760.41
2022-08-07T19:12:19.176Z,101760.00
2022-08-07T19:16:03.054Z,101762.31
2022-08-07T19:18:03.860Z,101764.47
2022-08-07T19:21:09.242Z,101760.91
2022-08-07T19:23:58.451Z,101761.56
2022-08-07T19:26:55.563Z,101751.53
2022-08-07T19:31:04.543Z,101760.03
2022-08-07T19:32:42.354Z,101764.00
2022-08-07T19:35:12.051Z,101760.88
2022-08-07T19:37:56.533Z,101761.22
2022-08-07T19:40:31.739Z,101754.97
2022-08-07T19:43:02.380Z,101764.88
2022-08-07T19:46:07.352Z,101764.09
2022-08-07T19:48:24.166Z,101766.84
2022-08-07T19:50:53.459Z,101765.78
2022-08-07T19:54:34.119Z,101771.06
2022-08-07T19:57:52.259Z,101773.19
2022-08-07T19:58:57.181Z,101775.59
2022-08-07T20:01:52.324Z,101779.88
2022-08-07T20:04:12.530Z,101779.75
2022-08-07T20:06:58.323Z,101777.72
2022-08-07T20:10:36.398Z,101785.72
2022-08-07T20:12:32.323Z,101783.72
2022-08-07T20:15:05.166Z,101783.00
2022-08-07T20:17:45.460Z,101788.75
2022-08-07T20:20:29.694Z,101794.41
2022-08-07T20:23:01.426Z,101781.19
2022-08-07T20:25:50.927Z,101786.69
2022-08-07T20:28:19.793Z,101782.34
2022-08-07T20:30:47.084Z,101779.53
2022-08-07T20:33:36.271Z,101779.69
2022-08-07T20:36:06.306Z,101782.56
2022-08-07T20:38:33.854Z,101788.72
2022-08-07T20:41:03.728Z,101788.81
2022-08-07T20:43:33.990Z,101795.41
2022-08-07T20:46:26.963Z,101788.31
2022-08-07T20:49:53.915Z,101781.53
2022-08-07T20:51:40.442Z,101783.38
2022-08-07T20:54:30.351Z,101781.72
2022-08-07T20:57:04.560Z,101791.94
2022-08-07T21:00:08.178Z,101786.53
2022-08-07T21:02:40.634Z,101791.31
2022-08-07T21:05:42.775Z,101790.97
2022-08-07T21:08:17.993Z,101791.75
2022-08-07T21:10:48.953Z,101791.56
2022-08-07T21:13:24.626Z,101792.69
2022-08-07T21:16:09.163Z,101789.34
2022-08-07T21:18:41.292Z,101785.72
2022-08-07T21:21:16.162Z,101786.63
2022-08-07T21:24:01.624Z,101781.88
2022-08-07T21:26:59.511Z,101789.91
2022-08-07T21:29:37.326Z,101788.91
2022-08-07T21:32:46.608Z,101792.38
2022-08-07T21:35:10.814Z,101790.88
2022-08-07T21:37:59.087Z,101781.09
2022-08-07T21:40:46.262Z,101787.56
2022-08-07T21:43:47.451Z,101789.66
2022-08-07T21:46:31.705Z,101787.72
2022-08-07T21:49:14.975Z,101791.84
2022-08-07T21:51:54.946Z,101784.50
2022-08-07T21:54:26.500Z,101789.19
2022-08-07T21:56:59.956Z,101786.22
2022-08-07T21:59:36.337Z,101789.13
2022-08-07T22:02:31.696Z,101783.97
2022-08-07T22:05:00.858Z,101784.50
2022-08-07T22:07:58.546Z,101785.41
2022-08-07T22:10:24.531Z,101787.09
2022-08-07T22:12:54.168Z,101789.28
2022-08-07T22:16:38.995Z,101786.63
2022-08-07T22:18:16.838Z,101789.25
2022-08-07T22:20:54.067Z,101799.97
2022-08-07T22:23:24.572Z,101792.38
2022-08-07T22:26:01.750Z,101791.59
2022-08-07T22:28:40.449Z,101795.06
2022-08-07T22:31:56.306Z,101790.09
2022-08-07T22:34:33.235Z,101799.03
2022-08-07T22:37:22.971Z,101797.03
2022-08-07T22:40:01.661Z,101801.91
2022-08-07T22:42:34.269Z,101794.38
2022-08-07T22:45:04.087Z,101793.84
2022-08-07T22:47:59.426Z,101786.22
2022-08-07T22:50:33.514Z,101781.34
2022-08-07T22:54:05.661Z,101779.91
2022-08-07T22:56:23.944Z,101781.69
2022-08-07T22:59:33.073Z,101778.47
2022-08-07T23:02:18.207Z,101782.56
2022-08-07T23:04:56.843Z,101774.19
2022-08-07T23:07:57.083Z,101775.28
2022-08-07T23:10:37.796Z,101767.66
2022-08-07T23:13:19.525Z,101767.22
2022-08-07T23:16:07.350Z,101768.34
2022-08-07T23:19:38.787Z,101762.66
2022-08-07T23:22:31.819Z,101770.50
2022-08-07T23:25:16.553Z,101769.75
2022-08-07T23:28:21.190Z,101762.34
2022-08-07T23:31:11.474Z,101767.13
2022-08-07T23:34:36.193Z,101771.41
2022-08-07T23:38:01.486Z,101764.88
2022-08-07T23:40:43.184Z,101763.22
2022-08-07T23:43:40.541Z,101770.16
2022-08-07T23:46:44.684Z,101775.91
2022-08-07T23:49:49.809Z,101758.25
2022-08-07T23:53:00.214Z,101764.78
2022-08-07T23:55:53.197Z,101766.84
2022-08-07T23:58:37.991Z,101762.03
